Time;durP1;ratioP1;P1;durP2;ratioP2;P2;SDS_P1;SDS_P2;PMS_P1;PMS_P2;Temp;Humidity;BMP_temperature;BMP_pressure;BME280_temperature;BME280_humidity;BME280_pressure;Samples;Min_cycle;Max_cycle;Signal;HPM_P1;HPM_P2
2021/05/02 00:00:43;;;;;;;5.65;2.22;;;18.50;99.90;;;;;;5030135;28;20045;-64
2021/05/02 00:03:10;;;;;;;5.13;2.33;;;18.50;99.90;;;;;;5033898;28;20045;-64
2021/05/02 00:05:38;;;;;;;12.35;2.30;;;18.50;99.90;;;;;;5029368;28;20045;-64
2021/05/02 00:08:05;;;;;;;4.00;1.65;;;18.50;99.90;;;;;;5030159;28;20048;-64
2021/05/02 00:10:33;;;;;;;3.40;1.83;;;18.50;99.90;;;;;;5027209;28;20053;-64
2021/05/02 00:13:01;;;;;;;4.53;2.05;;;18.50;99.90;;;;;;5027966;28;20451;-64
2021/05/02 00:15:28;;;;;;;6.35;2.17;;;18.50;99.90;;;;;;5031762;28;20048;-64
2021/05/02 00:17:56;;;;;;;7.30;2.50;;;18.50;99.90;;;;;;5028356;28;20046;-64
2021/05/02 00:20:25;;;;;;;6.32;2.33;;;18.40;99.90;;;;;;5033551;28;20389;-65
2021/05/02 00:22:54;;;;;;;4.47;1.92;;;18.40;99.90;;;;;;5024548;28;20091;-64
2021/05/02 00:25:24;;;;;;;5.00;2.17;;;18.40;99.90;;;;;;5028425;28;20492;-64
2021/05/02 00:27:51;;;;;;;6.28;1.85;;;18.50;99.90;;;;;;5036709;28;20103;-64
2021/05/02 00:30:21;;;;;;;4.80;2.17;;;18.40;99.90;;;;;;5029404;28;20057;-64
2021/05/02 00:32:51;;;;;;;4.50;2.17;;;18.50;99.90;;;;;;5029013;28;20051;-64
2021/05/02 00:35:23;;;;;;;5.07;2.20;;;18.40;99.90;;;;;;5027954;28;20045;-64
2021/05/02 00:37:51;;;;;;;7.97;2.50;;;18.40;99.90;;;;;;5031566;28;20038;-64
2021/05/02 00:40:20;;;;;;;5.70;2.78;;;18.40;99.90;;;;;;5030405;28;20103;-64
2021/05/02 00:42:52;;;;;;;6.00;2.53;;;18.40;99.90;;;;;;5029995;28;20087;-64
2021/05/02 00:45:47;;;;;;;5.00;2.70;;;18.40;99.90;;;;;;5042553;28;20049;-64
2021/05/02 00:48:27;;;;;;;9.40;2.97;;;18.40;99.90;;;;;;5028215;28;20404;-64
2021/05/02 00:51:02;;;;;;;9.50;2.75;;;18.40;99.90;;;;;;5033804;28;20039;-64
2021/05/02 00:53:45;;;;;;;5.70;2.75;;;18.40;99.90;;;;;;5029686;28;20045;-64
2021/05/02 00:56:22;;;;;;;;;;;18.40;99.90;;;;;;5019814;28;20037;-64
2021/05/02 00:58:58;;;;;;;10.07;2.70;;;18.30;99.90;;;;;;5030829;28;19925;-64
2021/05/02 01:01:30;;;;;;;7.35;2.88;;;18.30;99.90;;;;;;5022722;28;20050;-64
2021/05/02 01:03:59;;;;;;;6.68;2.42;;;18.30;99.90;;;;;;5024973;28;20065;-64
2021/05/02 01:06:30;;;;;;;6.65;3.25;;;18.30;99.90;;;;;;5026871;28;20044;-64
2021/05/02 01:09:01;;;;;;;7.65;2.83;;;18.30;99.90;;;;;;5019095;28;20062;-64
2021/05/02 01:11:29;;;;;;;9.93;3.03;;;18.30;99.90;;;;;;5030396;28;20045;-64
2021/05/02 01:13:58;;;;;;;7.53;2.97;;;18.20;99.90;;;;;;5026893;28;20564;-64
2021/05/02 01:16:27;;;;;;;6.07;2.70;;;18.20;99.90;;;;;;5018406;28;20049;-65
2021/05/02 01:18:55;;;;;;;7.45;2.42;;;18.20;99.90;;;;;;5024695;28;20386;-64
2021/05/02 01:21:31;;;;;;;6.82;2.50;;;18.10;99.90;;;;;;5025051;28;20485;-64
2021/05/02 01:23:59;;;;;;;6.30;2.88;;;18.10;99.90;;;;;;5022439;28;20037;-64
2021/05/02 01:26:27;;;;;;;8.88;3.40;;;18.00;99.90;;;;;;5034130;28;20124;-64
2021/05/02 01:28:56;;;;;;;7.72;2.53;;;18.00;99.90;;;;;;5033174;28;20091;-64
2021/05/02 01:31:24;;;;;;;6.25;2.70;;;18.00;99.90;;;;;;5035916;28;20060;-64
2021/05/02 01:33:52;;;;;;;6.07;2.75;;;18.00;99.90;;;;;;5033055;28;20167;-64
2021/05/02 01:36:21;;;;;;;6.68;2.53;;;18.00;99.90;;;;;;5031262;28;20164;-64
2021/05/02 01:38:50;;;;;;;7.95;2.40;;;18.00;99.90;;;;;;5026264;28;20436;-64
2021/05/02 01:41:16;;;;;;;8.70;3.17;;;17.90;99.90;;;;;;5023274;28;20041;-64
2021/05/02 01:43:43;;;;;;;8.00;3.10;;;17.90;99.90;;;;;;5031347;28;20058;-64
2021/05/02 01:46:14;;;;;;;7.93;3.03;;;17.90;99.90;;;;;;5033285;28;20041;-64
2021/05/02 01:48:41;;;;;;;10.13;2.95;;;17.90;99.90;;;;;;5031919;28;20449;-64
2021/05/02 01:51:14;;;;;;;8.98;2.97;;;17.90;99.90;;;;;;5032385;28;20061;-64
2021/05/02 01:53:40;;;;;;;10.68;2.83;;;18.00;99.90;;;;;;5029158;28;21987;-64
2021/05/02 01:56:07;;;;;;;7.72;2.88;;;18.00;99.90;;;;;;5035061;28;20045;-64
2021/05/02 01:58:35;;;;;;;7.53;3.22;;;18.00;99.90;;;;;;5021310;28;20057;-64
2021/05/02 02:01:15;;;;;;;7.65;3.10;;;18.00;99.90;;;;;;5036941;28;20044;-64
2021/05/02 02:03:44;;;;;;;7.97;3.28;;;17.90;99.90;;;;;;5029323;28;20042;-64
2021/05/02 02:06:13;;;;;;;8.27;3.22;;;17.90;99.90;;;;;;5027939;28;20531;-64
2021/05/02 02:08:40;;;;;;;6.63;2.90;;;17.90;99.90;;;;;;5029627;28;20120;-64
2021/05/02 02:11:07;;;;;;;9.93;3.97;;;17.90;99.90;;;;;;5041084;28;20049;-64
2021/05/02 02:13:35;;;;;;;10.18;3.63;;;17.90;99.90;;;;;;5033320;28;20037;-64
2021/05/02 02:16:06;;;;;;;9.70;3.97;;;17.90;99.90;;;;;;5033034;28;20038;-64
2021/05/02 02:18:33;;;;;;;9.85;3.65;;;17.90;99.90;;;;;;5036630;28;20857;-64
2021/05/02 02:21:01;;;;;;;10.30;3.80;;;17.90;99.90;;;;;;5032028;28;20056;-64
2021/05/02 02:23:33;;;;;;;6.43;3.33;;;17.80;99.90;;;;;;5030924;28;20033;-64
2021/05/02 02:26:30;;;;;;;9.23;4.03;;;17.90;99.90;;;;;;5028709;28;20057;-65
2021/05/02 02:28:59;;;;;;;6.95;3.10;;;17.90;99.90;;;;;;5049118;28;20049;-64
2021/05/02 02:31:32;;;;;;;7.88;3.30;;;17.80;99.90;;;;;;5046659;28;20606;-64
2021/05/02 02:33:59;;;;;;;11.10;3.15;;;17.80;99.90;;;;;;5033092;28;20037;-64
2021/05/02 02:36:26;;;;;;;7.95;3.33;;;17.90;99.90;;;;;;5047171;28;20069;-64
2021/05/02 02:38:52;;;;;;;9.35;3.50;;;17.90;99.90;;;;;;5034270;28;20053;-64
2021/05/02 02:41:19;;;;;;;9.30;3.17;;;17.90;99.90;;;;;;5051322;28;20055;-64
2021/05/02 02:43:54;;;;;;;8.50;3.00;;;18.00;99.90;;;;;;5043117;28;20520;-64
2021/05/02 02:46:22;;;;;;;16.15;4.60;;;17.90;99.90;;;;;;5051333;28;20140;-64
2021/05/02 02:48:54;;;;;;;11.25;3.30;;;17.90;99.90;;;;;;5047430;28;20127;-64
2021/05/02 02:51:25;;;;;;;7.75;3.38;;;17.80;99.90;;;;;;5052075;28;20917;-64
2021/05/02 02:53:53;;;;;;;10.23;3.70;;;17.80;99.90;;;;;;5044777;28;20400;-64
2021/05/02 02:56:21;;;;;;;7.32;3.20;;;17.80;99.90;;;;;;5031939;28;20056;-64
2021/05/02 02:59:01;;;;;;;11.65;3.00;;;17.80;99.90;;;;;;5046118;28;20084;-64
2021/05/02 03:01:29;;;;;;;9.18;3.47;;;17.80;99.90;;;;;;5043289;28;20080;-64
2021/05/02 03:03:58;;;;;;;9.20;3.00;;;17.80;99.90;;;;;;5031975;28;20046;-64
2021/05/02 03:06:26;;;;;;;9.20;3.08;;;17.80;99.90;;;;;;5030461;28;20053;-64
2021/05/02 03:08:55;;;;;;;8.95;2.50;;;17.80;99.90;;;;;;5029010;28;20046;-64
2021/05/02 03:11:23;;;;;;;6.85;2.88;;;17.80;99.90;;;;;;5031511;28;20042;-64
2021/05/02 03:13:50;;;;;;;12.07;4.50;;;17.70;99.90;;;;;;5031705;28;20048;-64
2021/05/02 03:16:23;;;;;;;12.13;2.88;;;17.70;99.90;;;;;;5032814;28;20041;-64
2021/05/02 03:19:27;;;;;;;10.80;3.50;;;17.70;99.90;;;;;;5030131;28;20068;-64
2021/05/02 03:22:12;;;;;;;10.77;3.65;;;17.70;99.90;;;;;;5026712;28;20056;-64
2021/05/02 03:24:43;;;;;;;8.65;2.88;;;17.70;99.90;;;;;;5026602;28;20546;-64
2021/05/02 03:27:21;;;;;;;10.95;3.22;;;17.70;99.90;;;;;;5032702;28;20036;-64
2021/05/02 03:29:48;;;;;;;14.98;3.20;;;17.60;99.90;;;;;;5030577;28;20056;-65
2021/05/02 03:32:16;;;;;;;13.15;3.08;;;17.70;99.90;;;;;;5038543;28;20041;-64
2021/05/02 03:34:44;;;;;;;7.90;3.20;;;17.70;99.90;;;;;;5030003;28;20399;-65
2021/05/02 03:37:16;;;;;;;17.42;4.07;;;17.50;99.90;;;;;;5028861;28;20033;-64
2021/05/02 03:39:46;;;;;;;;;;;17.50;99.90;;;;;;5031576;28;20053;-64
2021/05/02 03:42:14;;;;;;;10.00;3.40;;;17.40;99.90;;;;;;5027808;28;19925;-65
2021/05/02 03:44:41;;;;;;;15.60;4.35;;;17.40;99.90;;;;;;5028456;28;20187;-64
2021/05/02 03:47:08;;;;;;;11.55;3.47;;;17.40;99.90;;;;;;5025051;28;20037;-64
2021/05/02 03:49:36;;;;;;;11.98;4.07;;;17.30;99.90;;;;;;5027355;28;20046;-64
2021/05/02 03:52:03;;;;;;;9.68;2.95;;;17.30;99.90;;;;;;5029440;28;20112;-64
2021/05/02 03:54:29;;;;;;;10.45;3.40;;;17.30;99.90;;;;;;5029037;28;20381;-64
2021/05/02 03:56:56;;;;;;;10.27;3.60;;;17.30;99.90;;;;;;5031229;28;20050;-64
2021/05/02 03:59:25;;;;;;;9.88;3.63;;;17.30;99.90;;;;;;5030449;28;20079;-64
2021/05/02 04:01:53;;;;;;;11.32;4.20;;;17.30;99.90;;;;;;5027583;28;20043;-64
2021/05/02 04:04:31;;;;;;;14.45;4.50;;;17.30;99.90;;;;;;5029398;28;20033;-64
2021/05/02 04:07:02;;;;;;;7.95;3.80;;;17.30;99.90;;;;;;5040962;28;20049;-64
2021/05/02 04:09:29;;;;;;;8.10;4.13;;;17.30;99.90;;;;;;5031587;28;20523;-64
2021/05/02 04:11:56;;;;;;;17.58;3.83;;;17.30;99.90;;;;;;5037207;28;20037;-64
2021/05/02 04:14:23;;;;;;;9.27;4.20;;;17.30;99.90;;;;;;5030753;28;20046;-64
2021/05/02 04:17:01;;;;;;;12.60;4.40;;;17.30;99.90;;;;;;5027815;28;20040;-64
2021/05/02 04:19:33;;;;;;;10.88;4.18;;;17.30;99.90;;;;;;5023123;28;20047;-64
2021/05/02 04:22:00;;;;;;;11.57;3.92;;;17.30;99.90;;;;;;5022655;28;20052;-64
2021/05/02 04:24:27;;;;;;;13.65;4.97;;;17.30;99.90;;;;;;5025769;28;20056;-64
2021/05/02 04:26:55;;;;;;;11.82;3.72;;;17.30;99.90;;;;;;5025731;28;20030;-64
2021/05/02 04:29:23;;;;;;;10.95;4.72;;;17.20;99.90;;;;;;5024986;28;20099;-64
2021/05/02 04:31:51;;;;;;;12.35;3.67;;;17.20;99.90;;;;;;5030287;28;20040;-64
2021/05/02 04:34:20;;;;;;;9.38;3.53;;;17.20;99.90;;;;;;5031257;28;20044;-64
2021/05/02 04:36:48;;;;;;;16.58;4.38;;;17.20;99.90;;;;;;5024837;28;20030;-64
2021/05/02 04:39:16;;;;;;;14.00;5.03;;;17.30;99.90;;;;;;5031009;28;20049;-64
2021/05/02 04:41:42;;;;;;;10.75;4.15;;;17.30;99.90;;;;;;5029901;28;20060;-64
2021/05/02 04:44:09;;;;;;;17.20;4.93;;;17.30;99.90;;;;;;5025016;28;20049;-64
2021/05/02 04:46:37;;;;;;;14.70;4.97;;;17.30;99.90;;;;;;5027422;28;20416;-64
2021/05/02 04:49:06;;;;;;;11.98;4.63;;;17.30;99.90;;;;;;5031630;28;20127;-64
2021/05/02 04:51:32;;;;;;;13.32;4.18;;;17.30;99.90;;;;;;5031918;28;20515;-64
2021/05/02 04:53:59;;;;;;;8.75;4.60;;;17.30;99.90;;;;;;5031027;28;20045;-64
2021/05/02 04:56:25;;;;;;;11.38;4.50;;;17.40;99.90;;;;;;5025086;28;20045;-64
2021/05/02 04:58:52;;;;;;;14.00;4.47;;;17.50;99.90;;;;;;5025379;28;20415;-64
2021/05/02 05:01:19;;;;;;;11.88;3.97;;;17.50;99.90;;;;;;5028856;28;20110;-64
2021/05/02 05:03:46;;;;;;;7.07;4.10;;;17.40;99.90;;;;;;5022508;28;20523;-64
2021/05/02 05:06:12;;;;;;;10.25;4.68;;;17.50;99.90;;;;;;5036127;28;20048;-64
2021/05/02 05:08:39;;;;;;;9.73;4.55;;;17.50;99.90;;;;;;5030193;28;20173;-64
2021/05/02 05:11:07;;;;;;;9.93;3.88;;;17.60;99.90;;;;;;5030176;28;20038;-64
2021/05/02 05:13:34;;;;;;;12.27;4.22;;;17.60;99.90;;;;;;5028290;28;20052;-64
2021/05/02 05:16:01;;;;;;;6.35;4.07;;;17.60;99.90;;;;;;5030005;28;20053;-64
2021/05/02 05:18:28;;;;;;;12.82;4.38;;;17.70;99.90;;;;;;5019515;28;20099;-64
2021/05/02 05:20:56;;;;;;;13.05;4.43;;;17.80;99.90;;;;;;5028982;28;20033;-64
2021/05/02 05:23:24;;;;;;;11.52;3.80;;;17.90;99.90;;;;;;5030725;28;20041;-64
2021/05/02 05:25:51;;;;;;;8.90;3.85;;;17.90;99.90;;;;;;5027927;28;20037;-64
2021/05/02 05:28:18;;;;;;;17.67;4.50;;;18.00;99.90;;;;;;5030927;28;20037;-64
2021/05/02 05:30:44;;;;;;;11.10;3.88;;;18.10;99.90;;;;;;5027123;28;20111;-64
2021/05/02 05:33:11;;;;;;;8.02;3.17;;;18.10;99.90;;;;;;5029536;28;20068;-64
2021/05/02 05:35:38;;;;;;;11.60;3.63;;;18.10;99.90;;;;;;5031086;28;20056;-64
2021/05/02 05:38:05;;;;;;;12.00;4.22;;;18.20;99.90;;;;;;5028509;28;20052;-64
2021/05/02 05:40:32;;;;;;;9.75;3.40;;;18.20;99.90;;;;;;5028338;28;20424;-64
2021/05/02 05:43:03;;;;;;;13.93;3.90;;;18.30;99.90;;;;;;5030497;28;20042;-64
2021/05/02 05:45:31;;;;;;;8.85;2.85;;;18.30;99.90;;;;;;5023265;28;20065;-64
2021/05/02 05:47:59;;;;;;;7.60;3.08;;;18.30;99.90;;;;;;5027341;28;20041;-64
2021/05/02 05:50:26;;;;;;;7.30;2.28;;;18.40;99.90;;;;;;5029665;28;20049;-64
2021/05/02 05:52:53;;;;;;;9.27;2.63;;;18.40;99.90;;;;;;5028152;28;20053;-65
2021/05/02 05:55:21;;;;;;;11.35;3.13;;;18.50;99.90;;;;;;5030083;28;20053;-64
2021/05/02 05:57:48;;;;;;;7.93;2.88;;;18.60;99.90;;;;;;5027746;28;20065;-64
2021/05/02 06:00:17;;;;;;;9.60;2.90;;;18.60;99.90;;;;;;5018293;28;20408;-64
2021/05/02 06:02:43;;;;;;;12.68;4.10;;;18.60;99.90;;;;;;5029676;28;20045;-64
2021/05/02 06:05:10;;;;;;;7.90;2.38;;;18.60;99.90;;;;;;5027934;28;20073;-64
2021/05/02 06:07:37;;;;;;;4.95;2.20;;;18.70;99.90;;;;;;5031064;28;20042;-64
2021/05/02 06:10:05;;;;;;;9.57;2.30;;;18.70;99.90;;;;;;5027705;28;20042;-64
2021/05/02 06:12:32;;;;;;;11.15;2.80;;;18.80;99.90;;;;;;5032526;28;20623;-64
2021/05/02 06:15:00;;;;;;;5.25;1.70;;;18.80;99.90;;;;;;5027144;28;20048;-64
2021/05/02 06:17:27;;;;;;;8.40;1.42;;;18.90;99.90;;;;;;5026696;28;20050;-64
2021/05/02 06:19:54;;;;;;;16.30;2.40;;;19.00;99.90;;;;;;5032151;28;20168;-64
2021/05/02 06:22:20;;;;;;;8.98;1.55;;;19.00;99.90;;;;;;5031825;28;20056;-65
2021/05/02 06:24:47;;;;;;;9.93;1.63;;;19.20;99.90;;;;;;5031770;28;20088;-64
2021/05/02 06:27:14;;;;;;;9.43;1.02;;;19.20;99.90;;;;;;5030901;28;20041;-64
2021/05/02 06:29:41;;;;;;;9.88;2.00;;;19.40;99.90;;;;;;5029875;28;20030;-64
2021/05/02 06:32:08;;;;;;;14.30;1.30;;;19.40;99.90;;;;;;5030777;28;20033;-64
2021/05/02 06:34:35;;;;;;;5.30;0.95;;;19.50;99.90;;;;;;5032688;28;20065;-64
2021/05/02 06:37:02;;;;;;;6.80;1.45;;;19.60;99.90;;;;;;5031586;28;22167;-64
2021/05/02 06:39:29;;;;;;;21.50;1.00;;;;;;;;;;5011830;28;20058;-66
2021/05/02 06:41:56;;;;;;;3.38;0.40;;;19.80;99.50;;;;;;5030799;28;20505;-64
2021/05/02 06:44:23;;;;;;;4.10;0.68;;;;;;;;;;5031445;28;20037;-64
2021/05/02 06:46:50;;;;;;;8.05;0.63;;;19.90;96.20;;;;;;5029438;28;20064;-65
2021/05/02 06:49:16;;;;;;;11.27;0.95;;;20.00;96.10;;;;;;5025999;28;20041;-64
2021/05/02 06:51:44;;;;;;;6.38;0.95;;;20.10;94.50;;;;;;5026155;28;20045;-64
2021/05/02 06:54:10;;;;;;;8.50;0.77;;;20.10;94.20;;;;;;5028169;28;20501;-64
2021/05/02 06:56:37;;;;;;;3.95;0.57;;;20.20;94.00;;;;;;5026356;28;20041;-64
2021/05/02 06:59:04;;;;;;;4.53;0.65;;;20.10;93.40;;;;;;5025432;28;20045;-64
2021/05/02 07:01:31;;;;;;;3.58;0.30;;;20.20;93.20;;;;;;5026353;28;20107;-64
2021/05/02 07:03:59;;;;;;;6.40;0.75;;;20.20;92.70;;;;;;5035489;28;20053;-64
2021/05/02 07:06:34;;;;;;;6.70;0.95;;;20.30;92.50;;;;;;5016208;28;20057;-65
2021/05/02 07:09:03;;;;;;;5.90;0.30;;;20.40;92.30;;;;;;5025620;28;20501;-64
2021/05/02 07:11:30;;;;;;;7.18;0.68;;;20.60;91.50;;;;;;5025576;28;20048;-65
2021/05/02 07:13:56;;;;;;;10.20;0.77;;;20.70;89.50;;;;;;5025274;28;20037;-65
2021/05/02 07:16:23;;;;;;;8.45;0.35;;;20.70;85.90;;;;;;5029742;28;20052;-64
2021/05/02 07:18:51;;;;;;;9.27;0.35;;;20.80;85.40;;;;;;5027348;28;20517;-64
2021/05/02 07:21:19;;;;;;;10.00;0.73;;;20.80;86.20;;;;;;5028667;28;20080;-64
2021/05/02 07:23:48;;;;;;;6.68;0.50;;;20.80;86.80;;;;;;5027741;28;20073;-64
2021/05/02 07:26:17;;;;;;;5.68;0.50;;;20.80;85.30;;;;;;5024477;28;20107;-64
2021/05/02 07:28:43;;;;;;;7.07;0.38;;;20.80;84.10;;;;;;5026989;28;20490;-64
2021/05/02 07:31:11;;;;;;;9.43;0.60;;;20.80;82.80;;;;;;5024461;28;20042;-64
2021/05/02 07:33:39;;;;;;;10.68;0.57;;;20.80;82.50;;;;;;5030751;28;20094;-64
2021/05/02 07:36:06;;;;;;;9.75;1.00;;;20.70;82.50;;;;;;5029623;28;20057;-64
2021/05/02 07:38:33;;;;;;;6.25;0.63;;;20.70;82.40;;;;;;5027841;28;20504;-64
2021/05/02 07:41:00;;;;;;;4.72;0.30;;;20.70;81.60;;;;;;5024521;28;20053;-64
2021/05/02 07:43:26;;;;;;;7.68;0.88;;;20.80;82.40;;;;;;5015507;28;20381;-64
2021/05/02 07:45:53;;;;;;;8.18;0.30;;;20.70;81.70;;;;;;5024696;28;20041;-62
2021/05/02 07:48:19;;;;;;;6.65;0.40;;;20.70;81.10;;;;;;5031764;28;20098;-62
2021/05/02 07:50:47;;;;;;;6.78;0.50;;;20.50;78.30;;;;;;5023840;28;20424;-62
2021/05/02 07:53:16;;;;;;;4.00;0.32;;;20.40;79.60;;;;;;5031914;28;20063;-62
2021/05/02 07:55:43;;;;;;;4.70;0.50;;;20.40;79.50;;;;;;5036325;28;20390;-62
2021/05/02 07:58:09;;;;;;;6.82;0.43;;;20.60;80.20;;;;;;5024909;28;21714;-62
2021/05/02 08:00:36;;;;;;;6.93;0.40;;;20.70;78.70;;;;;;5025007;28;20057;-61
2021/05/02 08:03:02;;;;;;;21.05;1.05;;;20.80;83.40;;;;;;5034669;28;20052;-61
2021/05/02 08:05:31;;;;;;;3.70;0.50;;;20.70;77.70;;;;;;5029846;28;20049;-62
2021/05/02 08:07:59;;;;;;;9.60;0.22;;;20.50;77.70;;;;;;5035054;28;20044;-62
2021/05/02 08:10:26;;;;;;;7.90;0.20;;;19.20;75.50;;;;;;5022894;28;20045;-62
2021/05/02 08:12:53;;;;;;;3.80;0.77;;;18.70;76.40;;;;;;5026186;28;20052;-62
2021/05/02 08:15:20;;;;;;;5.82;0.73;;;18.40;78.90;;;;;;5028131;28;20500;-61
2021/05/02 08:17:46;;;;;;;2.33;0.63;;;18.30;78.40;;;;;;5029664;28;20053;-61
2021/05/02 08:20:14;;;;;;;2.55;0.75;;;17.90;78.40;;;;;;5028829;28;20049;-62
2021/05/02 08:22:41;;;;;;;2.67;0.10;;;17.60;79.20;;;;;;5029202;28;20500;-62
2021/05/02 08:25:08;;;;;;;2.53;0.05;;;17.50;80.30;;;;;;5028042;28;20037;-62
2021/05/02 08:27:35;;;;;;;1.40;0.17;;;17.50;80.20;;;;;;5027877;28;20061;-62
2021/05/02 08:30:04;;;;;;;1.50;0.00;;;17.40;79.40;;;;;;5028516;28;20159;-62
2021/05/02 08:32:30;;;;;;;0.77;0.00;;;17.40;79.30;;;;;;5027803;28;20134;-62
2021/05/02 08:34:57;;;;;;;3.53;0.20;;;17.30;79.80;;;;;;5030799;28;20469;-61
2021/05/02 08:37:23;;;;;;;2.05;0.00;;;17.10;79.40;;;;;;5027988;28;20045;-61
2021/05/02 08:39:50;;;;;;;0.63;0.10;;;17.00;80.30;;;;;;5022976;28;20049;-61
2021/05/02 08:42:16;;;;;;;0.20;0.00;;;17.00;80.80;;;;;;5027730;28;20045;-61
2021/05/02 08:44:43;;;;;;;0.68;0.00;;;17.00;80.20;;;;;;5019300;28;20050;-62
2021/05/02 08:47:13;;;;;;;0.30;0.00;;;16.90;80.40;;;;;;5022120;28;20045;-62
2021/05/02 08:49:41;;;;;;;0.50;0.10;;;16.60;80.50;;;;;;5028449;28;20408;-61
2021/05/02 08:52:09;;;;;;;0.10;0.00;;;16.70;81.40;;;;;;5022872;28;20029;-62
2021/05/02 08:54:37;;;;;;;0.22;0.00;;;16.50;81.50;;;;;;5037808;28;20041;-61
2021/05/02 08:57:04;;;;;;;0.00;0.00;;;16.10;82.60;;;;;;5020232;28;20042;-61
2021/05/02 08:59:31;;;;;;;0.55;0.10;;;16.10;83.90;;;;;;5034133;28;20049;-61
2021/05/02 09:01:59;;;;;;;0.73;0.00;;;16.10;84.40;;;;;;5029270;28;20052;-61
2021/05/02 09:04:26;;;;;;;1.40;0.10;;;16.20;84.20;;;;;;5034036;28;20179;-61
2021/05/02 09:06:54;;;;;;;0.10;0.00;;;16.30;85.10;;;;;;5025241;28;20049;-61
2021/05/02 09:09:21;;;;;;;1.75;0.00;;;16.40;82.80;;;;;;5027711;28;20040;-62
2021/05/02 09:11:49;;;;;;;0.13;0.00;;;16.50;82.40;;;;;;5030978;28;20136;-62
2021/05/02 09:14:19;;;;;;;1.00;0.30;;;16.70;82.20;;;;;;5022990;28;20068;-61
2021/05/02 09:16:48;;;;;;;0.45;0.00;;;17.00;82.00;;;;;;5009136;28;20052;-62
2021/05/02 09:19:16;;;;;;;0.28;0.00;;;17.00;79.40;;;;;;5022466;28;20045;-62
2021/05/02 09:21:44;;;;;;;0.52;0.00;;;16.90;80.40;;;;;;5018862;28;20142;-62
2021/05/02 09:24:33;;;;;;;0.70;0.10;;;16.80;80.80;;;;;;5027930;28;20064;-63
2021/05/02 09:27:06;;;;;;;0.65;0.00;;;16.90;80.70;;;;;;5025160;28;20052;-62
2021/05/02 09:29:35;;;;;;;0.10;0.00;;;16.80;80.20;;;;;;5017639;28;20044;-62
2021/05/02 09:32:04;;;;;;;1.23;0.20;;;16.80;80.70;;;;;;5023479;28;20041;-62
2021/05/02 09:34:32;;;;;;;0.47;0.10;;;16.60;80.10;;;;;;5015636;28;20561;-61
2021/05/02 09:37:03;;;;;;;2.60;0.10;;;16.70;81.40;;;;;;5020632;28;20092;-61
2021/05/02 09:39:52;;;;;;;0.10;0.00;;;16.90;81.00;;;;;;5023215;28;20065;-62
2021/05/02 09:42:24;;;;;;;1.85;0.00;;;17.00;79.40;;;;;;5025950;28;20302;-62
2021/05/02 09:44:56;;;;;;;0.57;0.00;;;17.10;79.60;;;;;;5022243;28;20052;-62
2021/05/02 09:47:34;;;;;;;1.50;0.10;;;17.00;79.30;;;;;;5028526;28;20523;-62
2021/05/02 09:50:21;;;;;;;1.30;0.10;;;17.10;78.40;;;;;;5025220;28;20046;-62
2021/05/02 09:53:02;;;;;;;0.40;0.00;;;17.00;77.30;;;;;;5026130;28;20563;-61
2021/05/02 09:55:44;;;;;;;0.45;0.15;;;17.30;77.60;;;;;;5023497;28;20682;-62
2021/05/02 09:58:15;;;;;;;0.50;0.00;;;17.50;76.40;;;;;;5039009;28;20052;-62
2021/05/02 10:00:50;;;;;;;2.55;0.20;;;17.30;76.60;;;;;;5027417;28;20048;-62
2021/05/02 10:03:17;;;;;;;0.50;0.10;;;17.20;76.50;;;;;;5009855;28;20148;-62
2021/05/02 10:05:58;;;;;;;1.00;0.20;;;17.20;78.00;;;;;;5026919;28;20041;-62
2021/05/02 10:08:29;;;;;;;2.65;0.70;;;17.30;79.00;;;;;;5025401;28;20512;-62
2021/05/02 10:10:57;;;;;;;2.67;0.13;;;17.20;78.40;;;;;;5041294;28;20037;-62
2021/05/02 10:13:24;;;;;;;1.48;0.20;;;17.00;80.60;;;;;;5025968;28;20655;-61
2021/05/02 10:15:51;;;;;;;0.98;0.17;;;17.00;81.00;;;;;;5023311;28;20053;-62
2021/05/02 10:18:18;;;;;;;0.52;0.10;;;17.10;83.90;;;;;;5021027;28;20527;-62
2021/05/02 10:20:46;;;;;;;0.13;0.00;;;17.30;81.80;;;;;;5026342;28;20119;-62
2021/05/02 10:23:14;;;;;;;0.77;0.13;;;17.30;81.30;;;;;;5022595;28;20413;-62
2021/05/02 10:25:45;;;;;;;0.35;0.10;;;17.20;80.70;;;;;;5028637;28;20042;-62
2021/05/02 10:28:16;;;;;;;0.93;0.10;;;17.20;81.70;;;;;;5018705;28;20038;-62
2021/05/02 10:30:48;;;;;;;0.32;0.10;;;17.40;78.20;;;;;;5021986;28;20523;-62
2021/05/02 10:33:29;;;;;;;0.98;0.10;;;17.40;77.00;;;;;;5025717;28;20045;-62
2021/05/02 10:35:59;;;;;;;0.40;0.10;;;17.40;77.40;;;;;;5027718;28;20041;-62
2021/05/02 10:38:52;;;;;;;0.40;0.00;;;17.00;76.30;;;;;;5029241;28;20523;-62
2021/05/02 10:41:38;;;;;;;;;;;17.10;77.00;;;;;;5012619;28;20078;-61
2021/05/02 10:44:07;;;;;;;1.10;0.17;;;16.80;77.90;;;;;;5027596;28;19921;-61
2021/05/02 10:46:57;;;;;;;0.70;0.10;;;17.00;79.70;;;;;;5025961;28;20055;-61
2021/05/02 10:49:23;;;;;;;4.93;0.57;;;17.20;79.60;;;;;;5026945;28;20053;-61
2021/05/02 10:51:52;;;;;;;1.15;0.10;;;17.50;79.30;;;;;;5029143;28;20042;-61
2021/05/02 10:54:23;;;;;;;6.25;0.55;;;17.70;77.70;;;;;;5025871;28;20045;-62
2021/05/02 10:56:53;;;;;;;2.03;0.68;;;17.70;76.30;;;;;;5023976;28;20044;-62
2021/05/02 10:59:25;;;;;;;1.08;0.20;;;17.50;75.50;;;;;;5033097;28;20044;-62
2021/05/02 11:01:52;;;;;;;0.43;0.13;;;17.30;75.60;;;;;;5022163;28;20053;-61
2021/05/02 11:04:20;;;;;;;0.52;0.13;;;17.10;76.40;;;;;;5029514;28;20045;-61
2021/05/02 11:06:51;;;;;;;0.28;0.10;;;17.10;75.90;;;;;;5030315;28;20041;-61
2021/05/02 11:09:20;;;;;;;0.90;0.10;;;16.80;76.70;;;;;;5043071;28;20045;-61
2021/05/02 11:36:10;;;;;;;1.20;0.30;;;17.90;71.10;;;;;;5058517;28;20467;-62
2021/05/02 11:38:39;;;;;;;1.02;0.20;;;17.80;71.20;;;;;;5068072;28;20403;-62
2021/05/02 11:41:08;;;;;;;0.95;0.22;;;17.40;71.50;;;;;;5060858;28;20052;-62
2021/05/02 11:43:37;;;;;;;0.95;0.28;;;17.50;71.80;;;;;;5067415;28;20507;-62
2021/05/02 11:46:15;;;;;;;2.63;0.30;;;17.70;71.10;;;;;;5047340;28;20091;-62
2021/05/02 11:48:43;;;;;;;0.40;0.20;;;17.80;70.30;;;;;;5068199;28;20052;-62
2021/05/02 11:51:23;;;;;;;1.33;0.30;;;17.90;71.10;;;;;;5051826;28;20055;-61
2021/05/02 11:53:58;;;;;;;1.65;0.20;;;17.80;68.60;;;;;;5066945;28;20494;-61
2021/05/02 11:56:33;;;;;;;0.95;0.32;;;17.60;70.00;;;;;;5065439;28;20039;-61
2021/05/02 11:59:09;;;;;;;0.30;0.10;;;17.40;71.00;;;;;;5046897;28;20068;-61
2021/05/02 12:01:42;;;;;;;2.13;0.40;;;17.20;71.70;;;;;;5071926;28;20042;-61
2021/05/02 12:04:18;;;;;;;4.95;0.52;;;16.90;71.80;;;;;;5048558;28;20059;-61
2021/05/02 12:06:46;;;;;;;0.98;0.30;;;16.90;73.10;;;;;;5054136;28;20510;-62
2021/05/02 12:09:18;;;;;;;1.20;0.40;;;16.70;72.80;;;;;;5083221;28;20044;-62
2021/05/02 12:11:53;;;;;;;3.60;0.80;;;16.70;74.20;;;;;;5054444;28;20040;-61
2021/05/02 12:14:25;;;;;;;2.78;1.10;;;16.40;74.10;;;;;;5064527;28;20048;-61
2021/05/02 12:16:55;;;;;;;3.22;0.40;;;16.30;74.80;;;;;;5067410;28;20127;-62
2021/05/02 12:19:26;;;;;;;1.33;0.32;;;16.20;75.40;;;;;;5071602;28;20070;-61
2021/05/02 12:21:53;;;;;;;1.10;0.90;;;16.20;76.10;;;;;;5062444;28;20049;-61
2021/05/02 12:24:26;;;;;;;1.95;0.47;;;16.00;76.90;;;;;;5047909;28;20045;-61
2021/05/02 12:26:59;;;;;;;0.80;0.40;;;16.00;77.10;;;;;;5066886;28;20045;-61
2021/05/02 12:29:29;;;;;;;0.93;0.43;;;16.00;77.70;;;;;;5065464;28;20052;-62
2021/05/02 12:32:04;;;;;;;1.17;0.50;;;16.00;78.30;;;;;;5064777;28;20090;-62
2021/05/02 12:34:43;;;;;;;3.03;0.50;;;16.10;78.60;;;;;;5066874;28;20041;-62
2021/05/02 12:37:18;;;;;;;9.70;4.65;;;16.20;78.30;;;;;;5048334;28;20226;-62
2021/05/02 12:39:47;;;;;;;6.95;3.58;;;16.60;78.00;;;;;;5057829;28;20049;-61
2021/05/02 12:42:14;;;;;;;7.38;4.68;;;17.00;78.10;;;;;;5057328;28;20072;-63
2021/05/02 12:44:51;;;;;;;2.13;0.90;;;17.40;76.60;;;;;;5052266;28;20139;-62
2021/05/02 12:47:21;;;;;;;3.15;1.15;;;17.50;76.30;;;;;;5059532;28;20521;-62
2021/05/02 12:49:56;;;;;;;5.22;3.05;;;17.60;75.30;;;;;;5066113;28;20037;-62
2021/05/02 12:52:30;;;;;;;2.55;1.85;;;18.00;73.30;;;;;;5068051;28;20437;-62
2021/05/02 12:55:14;;;;;;;15.00;2.28;;;18.40;71.20;;;;;;5045500;28;20044;-62
2021/05/02 12:57:41;;;;;;;2.15;1.65;;;18.20;71.50;;;;;;5066579;28;20704;-62
2021/05/02 13:00:13;;;;;;;1.02;0.68;;;17.70;71.20;;;;;;5050815;28;20364;-61
2021/05/02 13:02:45;;;;;;;2.97;0.50;;;17.70;72.20;;;;;;5060544;28;20052;-61
2021/05/02 14:18:05;;;;;;;0.80;0.30;;;18.20;62.90;;;;;;5019480;28;20913;-62
2021/05/02 14:20:32;;;;;;;1.30;0.20;;;17.60;62.40;;;;;;5019575;28;20045;-62
2021/05/02 14:22:58;;;;;;;2.05;0.30;;;17.60;61.30;;;;;;5030045;28;20050;-62
2021/05/02 14:25:25;;;;;;;3.67;1.33;;;17.20;62.70;;;;;;4993543;28;20050;-62
2021/05/02 14:27:51;;;;;;;1.25;0.77;;;17.00;63.60;;;;;;4996093;28;20092;-62
2021/05/02 14:30:18;;;;;;;4.32;0.77;;;17.00;64.20;;;;;;5004641;28;20054;-62
2021/05/02 14:32:45;;;;;;;1.77;1.02;;;16.90;65.00;;;;;;5006114;28;20042;-61
2021/05/02 14:35:11;;;;;;;2.38;0.30;;;16.50;64.90;;;;;;5025260;28;20392;-61